Time;durP1;ratioP1;P1;durP2;ratioP2;P2;SDS_P1;SDS_P2;PMS_P1;PMS_P2;Temp;Humidity;BMP_temperature;BMP_pressure;BME280_temperature;BME280_humidity;BME280_pressure;Samples;Min_cycle;Max_cycle;Signal;HPM_P1;HPM_P2
2021/12/01 00:00:19;;;;;;;;;5.75;5.75;;;;;19.86;38.67;100628.19;5077839;27;51720;-43
2021/12/01 00:02:52;;;;;;;;;6.00;5.25;;;;;19.83;38.88;100634.97;5081005;27;51893;-47
2021/12/01 00:05:18;;;;;;;;;3.75;3.75;;;;;19.80;38.65;100627.19;5090482;27;51112;-44
2021/12/01 00:07:43;;;;;;;;;6.50;4.75;;;;;19.79;38.61;100630.13;5094593;27;51316;-47
2021/12/01 00:10:09;;;;;;;;;9.75;5.75;;;;;19.76;38.56;100625.94;5088670;27;51231;-44
2021/12/01 00:12:35;;;;;;;;;6.25;5.00;;;;;19.73;38.56;100614.56;5093616;27;50976;-50
2021/12/01 00:15:00;;;;;;;;;4.50;4.25;;;;;19.71;38.55;100608.44;5080866;27;51038;-43
2021/12/01 00:17:25;;;;;;;;;5.75;4.50;;;;;19.69;38.96;100616.88;5082687;27;51256;-46
2021/12/01 00:19:51;;;;;;;;;6.00;5.00;;;;;19.67;38.79;100598.94;5087111;27;51378;-46
2021/12/01 00:22:17;;;;;;;;;5.25;3.00;;;;;19.67;38.90;100593.44;5084766;27;51544;-46
2021/12/01 00:24:42;;;;;;;;;6.00;5.75;;;;;19.63;38.56;100573.81;5109917;27;51220;-45
2021/12/01 00:27:08;;;;;;;;;4.50;4.50;;;;;19.63;38.71;100570.25;5091908;27;51219;-44
2021/12/01 00:29:33;;;;;;;;;4.25;4.00;;;;;19.59;38.80;100553.34;5097686;27;50908;-46
2021/12/01 00:31:59;;;;;;;;;3.00;3.00;;;;;19.58;38.58;100546.16;5099005;27;50978;-44
2021/12/01 00:34:25;;;;;;;;;3.75;3.75;;;;;19.57;38.87;100541.72;5094755;27;51050;-43
2021/12/01 00:36:50;;;;;;;;;3.75;3.75;;;;;19.55;38.95;100527.34;5086880;27;51123;-44
2021/12/01 00:39:16;;;;;;;;;5.25;4.00;;;;;19.53;38.50;100505.59;5079443;27;51087;-43
2021/12/01 00:41:41;;;;;;;;;3.00;3.00;;;;;19.51;38.98;100496.75;5079248;27;51105;-45
2021/12/01 00:44:09;;;;;;;;;4.00;4.00;;;;;19.50;38.94;100480.50;5079526;27;50947;-46
2021/12/01 00:47:11;;;;;;;;;5.75;3.25;;;;;19.47;38.70;100479.00;5091801;27;51391;-45
2021/12/01 00:49:26;;;;;;;;;3.00;2.75;;;;;19.45;38.79;100459.16;5088654;27;51108;-44
2021/12/01 00:51:51;;;;;;;;;4.00;4.00;;;;;19.45;39.02;100461.91;5079985;27;51052;-44
2021/12/01 00:54:17;;;;;;;;;3.75;3.25;;;;;19.43;39.08;100457.72;5083986;27;51228;-44
2021/12/01 00:56:44;;;;;;;;;4.75;2.50;;;;;19.42;39.06;100456.88;5095265;27;51265;-44
2021/12/01 00:59:09;;;;;;;;;4.00;3.00;;;;;19.40;39.03;100447.19;5099090;27;52671;-48
2021/12/01 01:01:35;;;;;;;;;4.50;3.00;;;;;19.40;39.06;100436.22;5081692;27;51097;-44
2021/12/01 01:04:00;;;;;;;;;4.00;2.50;;;;;19.37;38.91;100426.50;5079306;27;50916;-44
2021/12/01 01:06:26;;;;;;;;;2.50;2.50;;;;;19.37;39.17;100426.50;5082133;27;51123;-43
2021/12/01 01:08:52;;;;;;;;;4.00;2.00;;;;;19.36;38.83;100430.31;5080288;27;50946;-44
2021/12/01 01:16:50;;;;;;;;;2.00;1.75;;;;;19.31;39.05;100411.75;5086410;27;50978;-45
2021/12/01 01:19:16;;;;;;;;;4.00;4.00;;;;;19.31;39.16;100402.69;5078605;27;50937;-44
2021/12/01 01:21:48;;;;;;;;;1.25;1.25;;;;;19.30;38.98;100398.25;5079346;27;51307;-46
2021/12/01 01:24:15;;;;;;;;;3.00;3.00;;;;;19.29;38.89;100397.44;5082512;27;51127;-44
2021/12/01 01:26:40;;;;;;;;;2.50;1.00;;;;;19.28;38.91;100397.66;5084454;27;50930;-46
2021/12/01 01:29:06;;;;;;;;;2.00;2.00;;;;;19.26;39.10;100381.38;5078875;27;51858;-46
2021/12/01 01:31:32;;;;;;;;;2.50;1.75;;;;;19.26;39.01;100383.28;5078611;27;51078;-44
2021/12/01 01:33:58;;;;;;;;;2.00;2.00;;;;;19.25;39.22;100384.34;5077936;27;51044;-43
2021/12/01 01:36:24;;;;;;;;;1.75;1.75;;;;;19.23;39.21;100384.59;5086336;27;51319;-45
2021/12/01 01:38:51;;;;;;;;;2.75;2.00;;;;;19.23;39.25;100386.50;5098660;27;51026;-45
2021/12/01 01:41:17;;;;;;;;;3.75;3.00;;;;;19.22;39.13;100368.34;5111662;27;51435;-44
2021/12/01 01:43:44;;;;;;;;;2.25;1.00;;;;;19.22;39.04;100379.31;5087349;27;50961;-44
2021/12/01 01:46:11;;;;;;;;;2.00;2.00;;;;;19.21;39.14;100372.16;5077756;27;51126;-47
2021/12/01 01:48:52;;;;;;;;;2.00;2.00;;;;;19.20;39.25;100354.00;5078338;27;51838;-45
2021/12/01 01:51:20;;;;;;;;;0.50;0.50;;;;;19.20;39.18;100354.00;5081011;27;50835;-43
2021/12/01 01:53:46;;;;;;;;;2.25;2.25;;;;;19.18;39.53;100356.97;5098509;27;51126;-43
2021/12/01 01:56:12;;;;;;;;;1.75;1.75;;;;;19.18;38.98;100350.66;5091391;27;52126;-44
2021/12/01 01:58:38;;;;;;;;;2.75;1.50;;;;;19.17;39.22;100359.91;5087232;27;51794;-46
2021/12/01 02:01:07;;;;;;;;;3.75;1.00;;;;;19.16;39.26;100358.25;5093609;27;50994;-45
2021/12/01 02:03:37;;;;;;;;;2.25;0.75;;;;;19.15;39.36;100351.91;5087047;27;51456;-44
2021/12/01 02:06:03;;;;;;;;;4.50;1.25;;;;;19.14;39.16;100357.63;5087669;27;51154;-44
2021/12/01 02:08:33;;;;;;;;;3.00;2.00;;;;;19.13;39.36;100356.78;5078257;27;52414;-44
2021/12/01 02:11:02;;;;;;;;;2.00;2.00;;;;;19.13;39.26;100342.22;5077139;27;51170;-43
2021/12/01 02:13:28;;;;;;;;;0.50;0.50;;;;;19.13;39.22;100342.22;5079108;27;51320;-44
2021/12/01 02:15:55;;;;;;;;;2.00;1.75;;;;;19.11;39.27;100331.47;5090311;27;51076;-43
2021/12/01 02:18:20;;;;;;;;;2.00;2.00;;;;;19.11;39.45;100328.72;5097452;27;52202;-44
2021/12/01 02:21:14;;;;;;;;;1.75;1.75;;;;;19.11;39.37;100317.75;5087782;27;51201;-43
2021/12/01 02:23:45;;;;;;;;;2.50;1.50;;;;;19.10;39.59;100315.22;5076224;27;51034;-43
2021/12/01 02:26:12;;;;;;;;;1.00;1.00;;;;;19.09;39.36;100314.41;5079941;27;51194;-44
2021/12/01 02:28:42;;;;;;;;;0.75;0.75;;;;;19.08;39.34;100307.22;5077867;27;51998;-43
2021/12/01 02:31:08;;;;;;;;;1.00;1.00;;;;;19.09;39.26;100308.06;5077513;27;50951;-43
2021/12/01 02:33:34;;;;;;;;;2.50;1.00;;;;;19.07;39.44;100294.56;5111783;27;51146;-43
2021/12/01 02:35:59;;;;;;;;;1.25;0.50;;;;;19.06;39.58;100287.38;5081187;27;51177;-43
2021/12/01 02:38:25;;;;;;;;;1.00;1.00;;;;;19.06;39.36;100281.88;5092397;27;51041;-42
2021/12/01 02:40:51;;;;;;;;;1.00;1.00;;;;;19.05;39.45;100280.19;5113548;27;51176;-44
2021/12/01 02:43:18;;;;;;;;;1.00;1.00;;;;;19.04;39.58;100275.78;5085625;27;51103;-44
2021/12/01 02:45:43;;;;;;;;;1.25;1.00;;;;;19.04;39.70;100273.88;5079062;27;51104;-45
2021/12/01 02:48:13;;;;;;;;;1.00;1.00;;;;;19.04;39.40;100264.81;5077547;27;51704;-45
2021/12/01 02:50:42;;;;;;;;;1.50;1.00;;;;;19.03;39.60;100252.16;5095333;27;51072;-45
2021/12/01 02:53:08;;;;;;;;;3.00;1.00;;;;;19.01;39.58;100238.66;5090074;27;51121;-46
2021/12/01 02:55:39;;;;;;;;;1.00;1.00;;;;;19.01;39.71;100229.59;5083920;27;50982;-43
2021/12/01 02:58:05;;;;;;;;;1.00;1.00;;;;;19.01;39.62;100224.94;5077389;27;51066;-43
2021/12/01 03:00:30;;;;;;;;;3.75;1.75;;;;;19.01;39.62;100215.84;5077609;27;51160;-44
2021/12/01 03:02:58;;;;;;;;;3.00;1.50;;;;;19.00;39.65;100197.72;5085050;27;51020;-46
2021/12/01 03:05:24;;;;;;;;;1.75;1.75;;;;;18.99;39.47;100198.78;5094862;27;51293;-43
2021/12/01 03:07:49;;;;;;;;;1.50;1.50;;;;;18.99;39.57;100179.56;5081990;27;51725;-45
2021/12/01 03:10:15;;;;;;;;;2.75;2.75;;;;;18.99;39.74;100174.91;5077334;27;51023;-45
2021/12/01 03:12:41;;;;;;;;;1.00;1.00;;;;;18.97;39.59;100166.06;5093419;27;51077;-44
2021/12/01 03:15:10;;;;;;;;;1.00;1.00;;;;;18.97;39.83;100148.78;5089135;27;51024;-44
2021/12/01 03:17:37;;;;;;;;;0.50;0.25;;;;;18.96;39.79;100141.56;5085864;27;51054;-45
2021/12/01 03:20:08;;;;;;;;;1.25;1.25;;;;;18.96;39.70;100147.06;5077347;27;51098;-47
2021/12/01 03:22:34;;;;;;;;;1.00;0.00;;;;;18.95;39.68;100137.16;5078184;27;51031;-45
2021/12/01 03:24:59;;;;;;;;;0.75;0.75;;;;;18.95;39.69;100140.75;5078011;27;50939;-43
2021/12/01 03:27:25;;;;;;;;;1.00;1.00;;;;;18.95;39.65;100140.75;5089762;27;52017;-42
2021/12/01 03:29:50;;;;;;;;;1.00;1.00;;;;;18.93;39.78;100126.41;5097175;27;51035;-43
2021/12/01 03:32:17;;;;;;;;;1.00;1.00;;;;;18.93;39.76;100125.59;5077474;27;50984;-42
2021/12/01 03:34:43;;;;;;;;;1.00;1.00;;;;;18.93;39.84;100117.34;5079957;27;51170;-44
2021/12/01 03:37:10;;;;;;;;;0.75;0.75;;;;;18.92;39.69;100116.50;5090805;27;51735;-44
2021/12/01 03:39:36;;;;;;;;;1.00;1.00;;;;;18.91;39.78;100103.03;5076066;27;51444;-42
2021/12/01 03:42:03;;;;;;;;;0.50;0.50;;;;;18.90;39.83;100098.59;5067363;27;50952;-42
2021/12/01 03:44:29;;;;;;;;;0.75;0.75;;;;;18.90;39.66;100082.13;5076989;27;50967;-44
2021/12/01 03:46:54;;;;;;;;;0.75;0.75;;;;;18.89;39.78;100086.78;5093512;27;51401;-42
2021/12/01 03:49:20;;;;;;;;;0.00;0.00;;;;;18.88;39.79;100076.88;5095229;27;50898;-42
2021/12/01 03:51:45;;;;;;;;;1.50;1.50;;;;;18.88;39.94;100068.66;5092682;27;51094;-42
2021/12/01 03:54:11;;;;;;;;;1.25;1.25;;;;;18.87;39.96;100053.25;5077041;27;51068;-42
2021/12/01 03:56:36;;;;;;;;;0.00;0.00;;;;;18.87;40.09;100052.41;5078397;27;50967;-42
2021/12/01 03:59:04;;;;;;;;;1.75;0.50;;;;;18.86;39.97;100051.59;5078075;27;51067;-45
2021/12/01 04:01:31;;;;;;;;;0.75;0.75;;;;;18.86;40.01;100043.34;5076817;27;51115;-46
2021/12/01 04:03:58;;;;;;;;;0.00;0.00;;;;;18.86;39.75;100040.59;5076705;27;51405;-44
2021/12/01 04:06:24;;;;;;;;;0.00;0.00;;;;;18.84;39.93;100026.25;5087289;27;52246;-43
2021/12/01 04:08:49;;;;;;;;;0.00;0.00;;;;;18.84;39.82;100018.03;5077480;27;51120;-43
2021/12/01 04:11:15;;;;;;;;;0.00;0.00;;;;;18.83;39.68;99999.06;5075707;27;51025;-45
2021/12/01 04:13:40;;;;;;;;;1.00;1.00;;;;;18.84;39.90;99992.50;5076612;27;50890;-48
2021/12/01 04:16:06;;;;;;;;;0.00;0.00;;;;;18.81;39.95;99974.59;5088003;27;51287;-43
2021/12/01 04:18:31;;;;;;;;;0.00;0.00;;;;;18.82;39.88;99967.19;5094707;27;51197;-43
2021/12/01 04:20:56;;;;;;;;;0.75;0.00;;;;;18.81;39.73;99957.28;5094850;27;51058;-45
2021/12/01 04:23:22;;;;;;;;;0.75;0.75;;;;;18.81;40.12;99944.41;5076957;27;51152;-45
2021/12/01 04:25:48;;;;;;;;;0.00;0.00;;;;;18.81;40.08;99946.31;5080079;27;51131;-44
2021/12/01 04:28:13;;;;;;;;;0.00;0.00;;;;;18.81;39.99;99940.84;5080084;27;51096;-43
2021/12/01 04:30:39;;;;;;;;;0.00;0.00;;;;;18.79;39.99;99935.59;5092258;27;51052;-41
2021/12/01 04:33:04;;;;;;;;;1.25;1.00;;;;;18.80;39.51;99947.38;5076406;27;51225;-43
2021/12/01 04:35:30;;;;;;;;;1.00;1.00;;;;;18.79;40.00;99932.00;5084845;27;51446;-42
2021/12/01 04:37:57;;;;;;;;;0.00;0.00;;;;;18.78;40.05;99922.94;5093158;27;51060;-42
2021/12/01 04:40:23;;;;;;;;;1.00;1.00;;;;;18.78;40.00;99914.72;5095826;27;50940;-42
2021/12/01 04:42:49;;;;;;;;;0.00;0.00;;;;;18.77;40.01;99904.81;5095654;27;51355;-44
2021/12/01 04:45:17;;;;;;;;;0.75;0.75;;;;;18.77;39.93;99910.28;5086544;27;51951;-43
2021/12/01 04:47:54;;;;;;;;;0.00;0.00;;;;;18.77;39.90;99901.22;5077475;27;51070;-43
2021/12/01 04:50:22;;;;;;;;;1.75;0.75;;;;;18.75;39.91;99884.97;5076274;27;51090;-42
2021/12/01 04:52:49;;;;;;;;;0.00;0.00;;;;;18.76;40.10;99883.94;5095734;27;51151;-42
2021/12/01 04:55:14;;;;;;;;;1.75;0.50;;;;;18.75;40.02;99879.47;5090301;27;51223;-42
2021/12/01 04:57:42;;;;;;;;;0.00;0.00;;;;;18.74;40.17;99878.66;5080738;27;51061;-45
2021/12/01 05:00:10;;;;;;;;;1.00;0.00;;;;;18.74;40.25;99870.41;5086429;27;51010;-44
2021/12/01 05:02:35;;;;;;;;;1.00;0.00;;;;;18.73;40.07;99862.44;5096072;27;50955;-44
2021/12/01 05:05:01;;;;;;;;;0.25;0.25;;;;;18.73;40.04;99859.69;5082994;27;51806;-45
2021/12/01 05:07:26;;;;;;;;;0.00;0.00;;;;;18.71;40.15;99848.94;5096403;27;51066;-43
2021/12/01 05:09:51;;;;;;;;;0.00;0.00;;;;;18.72;40.23;99850.63;5079432;27;51355;-44
2021/12/01 05:12:17;;;;;;;;;0.00;0.00;;;;;18.72;40.10;99844.28;5079627;27;50942;-44
2021/12/01 05:14:42;;;;;;;;;1.50;1.00;;;;;18.71;39.96;99834.41;5082460;27;51722;-43
2021/12/01 05:17:08;;;;;;;;;0.00;0.00;;;;;18.71;40.08;99827.00;5097227;27;50955;-42
2021/12/01 05:19:34;;;;;;;;;0.00;0.00;;;;;18.71;40.21;99829.75;5097485;27;51014;-42
2021/12/01 05:21:59;;;;;;;;;0.00;0.00;;;;;18.71;40.14;99820.69;5095382;27;50960;-42
2021/12/01 05:24:25;;;;;;;;;0.25;0.00;;;;;18.69;40.36;99815.44;5096408;27;51898;-43
2021/12/01 05:26:51;;;;;;;;;0.00;0.00;;;;;18.69;40.15;99807.22;5086751;27;51318;-44
2021/12/01 05:29:16;;;;;;;;;0.00;0.00;;;;;18.69;40.27;99815.44;5079253;27;51106;-45
2021/12/01 05:31:42;;;;;;;;;0.00;0.00;;;;;18.69;40.14;99801.72;5079368;27;51162;-45
2021/12/01 05:34:07;;;;;;;;;1.00;0.00;;;;;18.69;40.22;99800.88;5079568;27;51735;-43
2021/12/01 05:36:33;;;;;;;;;0.25;0.25;;;;;18.68;40.25;99801.97;5092524;27;51283;-47
2021/12/01 05:38:59;;;;;;;;;0.25;0.00;;;;;18.67;40.30;99803.03;5099015;27;51080;-45
2021/12/01 05:41:24;;;;;;;;;0.50;0.00;;;;;18.67;40.37;99795.63;5098295;27;50976;-44
2021/12/01 05:43:50;;;;;;;;;3.00;0.75;;;;;18.67;40.40;99795.63;5097161;27;51909;-45
2021/12/01 05:46:15;;;;;;;;;0.00;0.00;;;;;18.65;40.20;99783.22;5093497;27;52065;-49
2021/12/01 05:48:41;;;;;;;;;0.00;0.00;;;;;18.65;40.37;99778.59;5098521;27;51217;-45
2021/12/01 05:51:07;;;;;;;;;0.00;0.00;;;;;18.66;40.21;99779.41;5093302;27;51303;-45
2021/12/01 05:53:32;;;;;;;;;0.00;0.00;;;;;18.66;40.30;99783.00;5097004;27;50948;-45
2021/12/01 05:55:58;;;;;;;;;1.00;0.50;;;;;18.63;40.28;99775.19;5099654;27;50914;-46
2021/12/01 05:58:23;;;;;;;;;1.00;0.00;;;;;18.65;40.33;99772.22;5078523;27;51044;-43
2021/12/01 06:00:49;;;;;;;;;0.00;0.00;;;;;18.64;40.27;99759.56;5078890;27;50904;-44
2021/12/01 06:03:14;;;;;;;;;0.00;0.00;;;;;18.64;40.36;99762.31;5078993;27;51148;-46
2021/12/01 06:05:40;;;;;;;;;0.00;0.00;;;;;18.63;40.15;99755.16;5078359;27;50901;-44
2021/12/01 06:08:06;;;;;;;;;0.00;0.00;;;;;18.64;40.33;99757.69;5078513;27;51323;-44
2021/12/01 06:10:31;;;;;;;;;0.00;0.00;;;;;18.63;40.10;99744.19;5094480;27;51187;-43
2021/12/01 06:12:57;;;;;;;;;0.00;0.00;;;;;18.63;40.52;99738.69;5079095;27;51074;-45
2021/12/01 06:15:22;;;;;;;;;0.00;0.00;;;;;18.62;40.31;99758.97;5087282;27;50955;-44
2021/12/01 06:17:48;;;;;;;;;0.00;0.00;;;;;18.61;40.76;99747.16;5095342;27;51040;-44
2021/12/01 06:20:14;;;;;;;;;0.00;0.00;;;;;18.60;40.98;99739.19;5084754;27;51133;-44
2021/12/01 06:22:41;;;;;;;;;0.00;0.00;;;;;18.56;41.29;99738.00;5065501;27;51803;-46
2021/12/01 06:25:08;;;;;;;;;0.00;0.00;;;;;18.53;41.44;99721.97;5072823;27;52662;-44
2021/12/01 06:27:33;;;;;;;;;0.00;0.00;;;;;18.47;41.87;99710.06;5075355;27;51071;-46
2021/12/01 06:29:59;;;;;;;;;0.00;0.00;;;;;18.46;42.07;99702.91;5075832;27;51115;-46
2021/12/01 06:32:24;;;;;;;;;0.00;0.00;;;;;18.45;42.22;99696.59;5074049;27;51089;-43
2021/12/01 06:34:50;;;;;;;;;0.00;0.00;;;;;18.52;42.12;99699.22;5083306;27;50985;-42
2021/12/01 06:37:17;;;;;;;;;0.00;0.00;;;;;18.62;42.41;99693.13;5067029;27;51135;-42
2021/12/01 06:39:43;;;;;;;;;0.00;0.00;;;;;18.71;42.11;99692.59;5078015;27;51205;-44
2021/12/01 06:42:08;;;;;;;;;0.00;0.00;;;;;18.80;42.18;99690.31;5083919;27;51767;-43
2021/12/01 06:44:34;;;;;;;;;0.00;0.00;;;;;18.90;42.28;99678.75;5080567;27;51105;-42
2021/12/01 06:47:01;;;;;;;;;0.00;0.00;;;;;18.99;41.96;99669.91;5074292;27;51136;-43
2021/12/01 06:49:26;;;;;;;;;0.75;0.00;;;;;19.08;41.84;99684.09;5075167;27;51274;-44
2021/12/01 06:51:52;;;;;;;;;0.00;0.00;;;;;19.17;42.06;99668.91;5076745;27;52741;-45
2021/12/01 06:54:18;;;;;;;;;0.00;0.00;;;;;19.27;41.60;99673.78;5075103;27;51058;-44
2021/12/01 06:56:44;;;;;;;;;0.00;0.00;;;;;19.35;41.99;99678.06;5071346;27;51060;-43
2021/12/01 06:59:09;;;;;;;;;0.75;0.00;;;;;19.44;41.68;99676.63;5076749;27;51064;-45
2021/12/01 07:01:35;;;;;;;;;0.50;0.50;;;;;19.51;41.86;99667.16;5076003;27;51176;-43
2021/12/01 07:04:00;;;;;;;;;0.00;0.00;;;;;19.59;41.76;99666.81;5077669;27;51018;-43
2021/12/01 07:06:25;;;;;;;;;0.00;0.00;;;;;19.68;41.56;99671.91;5091147;27;51494;-42
2021/12/01 07:08:51;;;;;;;;;1.75;0.00;;;;;19.76;41.70;99661.34;5077438;27;51378;-44
2021/12/01 07:11:16;;;;;;;;;1.00;0.00;;;;;19.83;41.65;99664.78;5088496;27;51676;-42
2021/12/01 07:13:42;;;;;;;;;0.75;0.75;;;;;19.91;41.66;99663.56;5090775;27;51172;-43
2021/12/01 07:16:07;;;;;;;;;1.00;0.00;;;;;19.98;41.66;99653.22;5078533;27;51088;-44
2021/12/01 07:18:33;;;;;;;;;2.00;0.00;;;;;20.05;41.79;99656.66;5076548;27;51203;-43
2021/12/01 07:20:59;;;;;;;;;0.50;0.00;;;;;20.10;41.53;99650.41;5073102;27;51735;-42
2021/12/01 07:23:24;;;;;;;;;1.00;1.00;;;;;20.15;41.65;99648.59;5083011;27;51090;-40
2021/12/01 07:25:50;;;;;;;;;0.75;0.75;;;;;20.22;41.85;99658.59;5075134;27;51176;-45
2021/12/01 07:28:15;;;;;;;;;1.50;1.00;;;;;20.26;41.53;99657.03;5075918;27;50956;-41
2021/12/01 07:30:41;;;;;;;;;0.75;0.75;;;;;20.31;41.66;99662.59;5078879;27;52219;-41
2021/12/01 07:33:07;;;;;;;;;1.25;1.25;;;;;20.34;41.88;99651.13;5081334;27;51818;-44
2021/12/01 07:35:33;;;;;;;;;3.50;1.00;;;;;20.37;41.87;99659.69;5071934;27;51330;-43
2021/12/01 07:37:59;;;;;;;;;3.00;1.00;;;;;20.41;41.70;99663.59;5076421;27;51028;-43
2021/12/01 07:40:24;;;;;;;;;1.50;1.50;;;;;20.44;42.15;99665.06;5073454;27;51003;-43
2021/12/01 07:42:51;;;;;;;;;1.25;1.25;;;;;20.48;42.06;99660.72;5067457;27;51148;-44
2021/12/01 07:45:16;;;;;;;;;1.00;1.00;;;;;20.53;41.99;99666.31;5067088;27;51067;-44
2021/12/01 07:47:42;;;;;;;;;1.25;1.00;;;;;20.58;41.91;99666.38;5075575;27;51277;-46
2021/12/01 07:50:08;;;;;;;;;1.00;1.00;;;;;20.63;41.80;99671.13;5071341;27;52013;-44
2021/12/01 07:52:35;;;;;;;;;2.25;2.25;;;;;20.68;42.00;99671.22;5069832;27;51041;-45
2021/12/01 07:55:00;;;;;;;;;1.25;1.25;;;;;20.72;41.35;99658.59;5071324;27;51221;-45
2021/12/01 07:57:26;;;;;;;;;3.50;0.75;;;;;20.76;41.92;99657.03;5073612;27;51199;-45
2021/12/01 07:59:51;;;;;;;;;3.75;2.00;;;;;20.82;41.96;99664.25;5071583;27;52050;-46
2021/12/01 08:02:17;;;;;;;;;0.00;0.00;;;;;20.84;42.00;99651.09;5071975;27;51075;-47
2021/12/01 08:04:42;;;;;;;;;2.00;2.00;;;;;20.82;42.09;99650.50;5063465;27;51270;-45
2021/12/01 08:07:08;;;;;;;;;3.25;2.00;;;;;20.76;42.36;99637.78;5075825;27;51158;-46
2021/12/01 08:09:33;;;;;;;;;2.00;2.00;;;;;20.72;41.88;99640.19;5075435;27;50984;-45
2021/12/01 08:11:59;;;;;;;;;1.00;1.00;;;;;20.67;41.87;99640.13;5076019;27;51007;-45
2021/12/01 08:14:24;;;;;;;;;2.00;2.00;;;;;20.63;42.22;99640.84;5090847;27;51401;-45
2021/12/01 08:16:50;;;;;;;;;3.50;1.50;;;;;20.58;42.02;99635.28;5091323;27;50923;-47
2021/12/01 08:19:16;;;;;;;;;2.00;2.00;;;;;20.53;41.77;99630.56;5074635;27;51905;-45
2021/12/01 08:21:46;;;;;;;;;2.00;1.25;;;;;20.46;42.45;99627.97;5075132;27;51013;-47
2021/12/01 08:24:12;;;;;;;;;2.75;1.00;;;;;20.41;41.78;99627.00;5075017;27;50976;-46
2021/12/01 08:26:40;;;;;;;;;1.00;1.00;;;;;20.35;42.25;99623.34;5080984;27;51119;-48
2021/12/01 08:29:06;;;;;;;;;4.00;1.00;;;;;20.32;41.98;99617.50;5078438;27;51104;-46
2021/12/01 08:31:31;;;;;;;;;2.00;1.50;;;;;20.29;42.47;99623.50;5078869;28;51055;-46
2021/12/01 08:33:57;;;;;;;;;1.00;1.00;;;;;20.24;42.13;99615.19;5079317;27;51217;-47
2021/12/01 08:36:22;;;;;;;;;2.25;1.50;;;;;20.21;41.92;99612.94;5079233;27;51135;-46
2021/12/01 08:38:48;;;;;;;;;1.75;1.75;;;;;20.15;41.98;99610.09;5095043;27;51035;-47
2021/12/01 08:41:13;;;;;;;;;2.00;2.00;;;;;20.12;42.11;99607.88;5078897;27;51045;-46
2021/12/01 08:43:39;;;;;;;;;1.75;1.75;;;;;20.07;42.02;99618.75;5079254;27;51397;-46
2021/12/01 08:46:06;;;;;;;;;2.00;2.00;;;;;20.05;41.93;99622.84;5079221;27;51165;-44
2021/12/01 08:48:32;;;;;;;;;2.50;2.00;;;;;20.02;42.07;99626.09;5078474;27;51053;-44
2021/12/01 08:51:01;;;;;;;;;2.00;2.00;;;;;19.99;41.97;99616.41;5079306;27;51481;-44
2021/12/01 08:53:27;;;;;;;;;2.00;1.25;;;;;19.95;42.16;99612.50;5078950;27;51146;-45
2021/12/01 08:55:53;;;;;;;;;5.75;1.25;;;;;19.92;41.75;99626.75;5078701;27;51181;-45
2021/12/01 08:58:19;;;;;;;;;2.00;2.00;;;;;19.89;42.18;99606.06;5078102;27;52541;-46
2021/12/01 09:00:46;;;;;;;;;1.00;1.00;;;;;19.87;41.80;99608.25;5094665;27;51192;-46
2021/12/01 09:03:12;;;;;;;;;3.25;2.00;;;;;19.85;41.99;99617.81;5078887;27;51050;-47
2021/12/01 09:05:39;;;;;;;;;3.75;3.75;;;;;19.81;42.17;99613.91;5078918;27;50965;-44
2021/12/01 09:08:05;;;;;;;;;3.00;2.00;;;;;19.78;41.92;99615.22;5079021;28;51022;-44
2021/12/01 09:10:31;;;;;;;;;1.25;1.25;;;;;19.76;42.00;99620.13;5078419;27;51146;-45
2021/12/01 09:12:57;;;;;;;;;3.75;2.50;;;;;19.74;41.84;99611.31;5078646;27;50994;-44
2021/12/01 09:15:23;;;;;;;;;2.25;1.50;;;;;19.72;41.84;99605.25;5079122;27;51212;-45
2021/12/01 09:17:48;;;;;;;;;3.00;3.00;;;;;19.71;41.60;99621.97;5078311;27;51343;-46
2021/12/01 09:20:14;;;;;;;;;2.00;0.00;;;;;19.68;42.12;99605.97;5078419;27;51174;-44
2021/12/01 09:22:40;;;;;;;;;3.00;3.00;;;;;19.65;42.07;99618.28;5078474;27;51118;-45
2021/12/01 09:25:07;;;;;;;;;3.25;2.00;;;;;19.63;41.84;99612.22;5074413;27;51570;-45
2021/12/01 09:27:32;;;;;;;;;3.00;2.00;;;;;19.62;41.99;99613.28;5076238;27;51929;-45
2021/12/01 09:29:58;;;;;;;;;5.00;2.50;;;;;19.59;41.59;99603.63;5077358;28;51097;-43
2021/12/01 09:32:23;;;;;;;;;3.50;2.00;;;;;19.58;41.86;99610.19;5074018;27;50954;-47
2021/12/01 09:34:48;;;;;;;;;4.00;2.00;;;;;19.61;41.48;99608.88;5074136;27;51084;-46
2021/12/01 09:37:15;;;;;;;;;4.00;2.50;;;;;19.67;41.57;99613.38;5069904;27;53698;-45
2021/12/01 09:39:41;;;;;;;;;3.75;3.00;;;;;19.77;41.65;99599.00;5070318;27;51047;-45
2021/12/01 09:42:08;;;;;;;;;3.00;3.00;;;;;19.86;41.45;99612.06;5074146;27;51259;-45
2021/12/01 09:44:35;;;;;;;;;2.00;2.00;;;;;19.98;41.40;99606.50;5071123;27;51165;-46
2021/12/01 09:47:01;;;;;;;;;4.75;4.00;;;;;20.10;41.76;99617.44;5073993;27;52215;-44
2021/12/01 09:49:26;;;;;;;;;2.25;2.25;;;;;20.21;41.36;99621.19;5074807;27;51276;-44
2021/12/01 09:51:52;;;;;;;;;2.25;2.00;;;;;20.29;41.84;99616.09;5075292;27;51284;-44
2021/12/01 09:54:17;;;;;;;;;2.75;2.00;;;;;20.39;41.35;99626.44;5072391;27;51151;-45
2021/12/01 09:56:43;;;;;;;;;1.50;1.50;;;;;20.46;41.34;99636.22;5069770;27;51262;-45
2021/12/01 09:59:08;;;;;;;;;1.00;1.00;;;;;20.55;41.58;99638.56;5088030;27;51355;-46
2021/12/01 10:01:34;;;;;;;;;1.75;1.00;;;;;20.63;41.71;99641.69;5072328;27;51104;-45
2021/12/01 10:04:00;;;;;;;;;1.25;1.25;;;;;20.71;41.53;99632.19;5070235;27;51452;-46
2021/12/01 10:06:27;;;;;;;;;2.00;2.00;;;;;20.79;40.88;99647.44;5070325;27;51543;-45
2021/12/01 10:09:00;;;;;;;;;1.00;1.00;;;;;20.86;41.27;99643.44;5090670;27;51163;-48
2021/12/01 10:11:30;;;;;;;;;2.00;1.25;;;;;20.95;41.30;99641.06;5072900;27;51022;-46
2021/12/01 10:14:00;;;;;;;;;3.25;0.25;;;;;21.01;40.85;99631.78;5073674;27;51406;-47
2021/12/01 10:16:29;;;;;;;;;1.75;1.75;;;;;21.07;41.34;99644.53;5072909;27;51097;-44
2021/12/01 10:18:58;;;;;;;;;2.00;1.00;;;;;21.12;40.81;99647.34;5069262;27;51114;-45
2021/12/01 10:21:37;;;;;;;;;1.75;1.00;;;;;21.17;41.17;99644.66;5072391;27;51289;-44
2021/12/01 10:24:19;;;;;;;;;1.50;1.00;;;;;21.23;40.95;99635.38;5070217;27;51330;-46
2021/12/01 10:26:52;;;;;;;;;0.00;0.00;;;;;21.29;41.13;99634.38;5072943;27;51871;-47
2021/12/01 10:29:21;;;;;;;;;1.00;1.00;;;;;21.35;40.58;99639.94;5076509;27;51004;-49
2021/12/01 10:31:48;;;;;;;;;0.75;0.75;;;;;21.40;41.09;99660.13;5069259;27;51116;-45
2021/12/01 10:34:21;;;;;;;;;2.00;1.00;;;;;21.45;40.84;99656.59;5078415;27;51224;-48
2021/12/01 10:37:07;;;;;;;;;1.00;1.00;;;;;21.49;40.89;99647.56;5074653;27;51177;-46
2021/12/01 10:39:32;;;;;;;;;1.00;1.00;;;;;21.53;40.83;99659.72;5069359;27;51204;-47
2021/12/01 10:42:07;;;;;;;;;0.00;0.00;;;;;21.58;40.43;99654.28;5074449;27;51166;-46
2021/12/01 10:44:35;;;;;;;;;0.00;0.00;;;;;21.62;40.77;99651.84;5074305;27;51141;-46
2021/12/01 10:47:08;;;;;;;;;3.50;0.00;;;;;21.66;40.69;99652.97;5071717;27;51952;-45
2021/12/01 10:49:43;;;;;;;;;0.00;0.00;;;;;21.67;40.93;99648.31;5073948;28;51261;-44
2021/12/01 10:52:36;;;;;;;;;1.00;0.00;;;;;21.62;40.88;99638.06;5072486;27;51107;-45
2021/12/01 10:55:15;;;;;;;;;1.00;1.00;;;;;21.57;40.88;99646.25;5073902;27;51172;-45
2021/12/01 10:57:57;;;;;;;;;0.00;0.00;;;;;21.50;41.15;99651.16;5074676;27;51855;-45
2021/12/01 11:00:29;;;;;;;;;1.00;1.00;;;;;21.43;40.67;99651.34;5086713;27;51394;-44
2021/12/01 11:03:09;;;;;;;;;1.00;1.00;;;;;21.40;40.67;99640.03;5065401;28;51840;-45
2021/12/01 11:05:39;;;;;;;;;0.25;0.25;;;;;21.43;41.14;99648.59;5081068;27;51100;-49
2021/12/01 11:08:29;;;;;;;;;0.75;0.75;;;;;21.50;40.65;99638.22;5072897;27;51567;-45
2021/12/01 11:11:03;;;;;;;;;0.00;0.00;;;;;21.59;40.61;99635.84;5071455;27;51219;-50
2021/12/01 11:13:28;;;;;;;;;0.00;0.00;;;;;21.66;40.51;99628.19;5075422;27;51281;-45
2021/12/01 11:15:57;;;;;;;;;1.75;1.00;;;;;21.72;40.58;99629.91;5071129;27;51458;-45
2021/12/01 11:18:28;;;;;;;;;0.50;0.50;;;;;21.76;40.40;99628.28;5070875;27;51107;-44
2021/12/01 11:21:16;;;;;;;;;0.00;0.00;;;;;21.80;40.10;99637.72;5068399;27;51441;-46
2021/12/01 11:24:10;;;;;;;;;1.50;0.00;;;;;21.82;40.18;99619.00;5073955;27;51123;-44
2021/12/01 11:26:38;;;;;;;;;0.00;0.00;;;;;21.84;40.48;99627.81;5072719;27;51187;-44
2021/12/01 11:29:08;;;;;;;;;0.00;0.00;;;;;21.83;40.52;99619.81;5072355;27;51784;-45
2021/12/01 11:31:43;;;;;;;;;0.75;0.75;;;;;21.80;40.63;99625.88;5087714;27;51075;-44
2021/12/01 11:34:11;;;;;;;;;0.25;0.25;;;;;21.76;41.41;99628.28;5070126;27;51006;-45
2021/12/01 11:36:39;;;;;;;;;2.00;2.00;;;;;21.74;41.56;99616.69;5074299;27;51512;-46